Desroches Airport

Jump to: basic info | weather | runways | comments

Related pages: nearby airports | nearby navaids | notams | map

Basic information (top)

Codes: DES FSDR
Location: lon -5.696700, lat 53.655800, elev 10 ft / 3 m msl
Status: small_airport
Scheduled airline service: no
Links: Wikipedia Mobile

Weather (top)

Current conditions for Seychelles International Airport 127nm (236km) ENE (rec'd 2014/04/18 10:00Z):

FSIA 181000Z 12012KT 9999 FEW014CB BKN018 32/24 Q1011 NOSIG

Airport forecast for Seychelles International Airport 127nm (236km) ENE (rec'd 2014/04/18 06:00Z):

TAF FSIA 180408Z 1806/1906 03010KT 9999 FEW017CB SCT019 
      TEMPO 1806/1809 -SHRA FEW016CB BKN017 
      BECMG 1814/1816 VRB05KT 
      TEMPO 1818/1906 8000 -SHRA FEW016CB BKN017 
      BECMG 1903/1905 04010KT

Runways (top)

12/30: 4,531 x 33 ft (1,381 x 10 m) — paved — not lighted

Latest comments (top)

No comments yet for Desroches Airport

More... (top)

See also NOTAMs and nearby airports and navaids, or visit the Desroches Airport page at the main OurAirports website..